createdAt,value
2016-07-12T00:00:38.543Z,0
2016-07-12T00:01:38.519Z,0
2016-07-12T00:02:38.502Z,0
2016-07-12T00:03:38.484Z,0
2016-07-12T00:04:38.456Z,0
2016-07-12T00:05:38.442Z,0
2016-07-12T00:06:39.118Z,0
2016-07-12T00:07:38.437Z,0
2016-07-12T00:08:39.095Z,0
2016-07-12T00:09:38.361Z,0
2016-07-12T00:10:38.359Z,0
2016-07-12T00:11:38.329Z,0
2016-07-12T00:12:38.313Z,0
2016-07-12T00:13:38.293Z,0
2016-07-12T00:14:38.280Z,0
2016-07-12T00:15:38.258Z,0
2016-07-12T00:16:38.234Z,0
2016-07-12T00:17:38.220Z,0
2016-07-12T00:18:38.192Z,0
2016-07-12T00:19:38.871Z,0
2016-07-12T00:20:38.153Z,0
2016-07-12T00:21:38.140Z,0
2016-07-12T00:22:38.114Z,0
2016-07-12T00:23:38.101Z,0
2016-07-12T00:24:38.088Z,0
2016-07-12T00:25:38.063Z,0
2016-07-12T00:26:38.055Z,0
2016-07-12T00:27:38.020Z,0
2016-07-12T00:28:38.002Z,0
2016-07-12T00:29:37.984Z,0
2016-07-12T00:30:37.961Z,0
2016-07-12T00:31:37.940Z,0
2016-07-12T00:32:37.926Z,0
2016-07-12T00:33:37.906Z,0
2016-07-12T00:34:37.888Z,0
2016-07-12T00:35:37.868Z,0
2016-07-12T00:36:37.845Z,0
2016-07-12T00:37:37.828Z,0
2016-07-12T00:38:37.812Z,0
2016-07-12T00:39:37.800Z,0
2016-07-12T00:40:37.767Z,0
2016-07-12T00:41:37.752Z,0
2016-07-12T00:42:37.738Z,0
2016-07-12T00:43:37.714Z,0
2016-07-12T00:44:37.697Z,0
2016-07-12T00:45:37.675Z,0
2016-07-12T00:46:37.649Z,0
2016-07-12T00:47:37.632Z,0
2016-07-12T00:48:37.625Z,0
2016-07-12T00:49:37.596Z,0
2016-07-12T00:50:37.583Z,0
2016-07-12T00:51:37.558Z,0
2016-07-12T00:52:37.549Z,0
2016-07-12T00:53:37.515Z,0
2016-07-12T00:54:37.504Z,0
2016-07-12T00:55:37.481Z,0
2016-07-12T00:56:37.461Z,0
2016-07-12T00:57:37.442Z,0
2016-07-12T00:58:37.422Z,0
2016-07-12T00:59:38.099Z,0
2016-07-12T01:00:37.377Z,0
2016-07-12T01:01:37.366Z,0
2016-07-12T01:02:37.346Z,0
2016-07-12T01:03:37.320Z,0
2016-07-12T01:04:37.308Z,0
2016-07-12T01:05:37.292Z,0
2016-07-12T01:06:37.263Z,0
2016-07-12T01:07:37.247Z,0
2016-07-12T01:08:37.235Z,0
2016-07-12T01:09:37.212Z,0
2016-07-12T01:10:37.192Z,0
2016-07-12T01:11:37.167Z,0
2016-07-12T01:12:37.153Z,0
2016-07-12T01:13:37.126Z,0
2016-07-12T01:14:37.108Z,0
2016-07-12T01:15:37.091Z,0
2016-07-12T01:16:37.071Z,0
2016-07-12T01:17:37.054Z,0
2016-07-12T01:18:37.030Z,0
2016-07-12T01:19:37.009Z,0
2016-07-12T01:20:37.006Z,0
2016-07-12T01:21:36.970Z,0
2016-07-12T01:22:36.954Z,0
2016-07-12T01:23:36.940Z,0
2016-07-12T01:24:36.914Z,0
2016-07-12T01:25:36.901Z,0
2016-07-12T01:26:36.875Z,0
2016-07-12T01:27:36.862Z,0
2016-07-12T01:28:36.848Z,0
2016-07-12T01:29:36.815Z,0
2016-07-12T01:30:36.797Z,0
2016-07-12T01:31:37.474Z,0
2016-07-12T01:32:36.760Z,0
2016-07-12T01:33:36.738Z,0
2016-07-12T01:34:36.719Z,0
2016-07-12T01:35:37.390Z,0
2016-07-12T01:36:36.681Z,0
2016-07-12T01:37:36.662Z,0
2016-07-12T01:38:36.640Z,0
2016-07-12T01:39:36.649Z,0
2016-07-12T01:40:36.611Z,0
2016-07-12T01:41:36.578Z,0
2016-07-12T01:42:36.564Z,0
2016-07-12T01:43:36.542Z,0
2016-07-12T01:44:36.520Z,0
2016-07-12T01:45:36.504Z,0
2016-07-12T01:46:36.486Z,0
2016-07-12T01:47:36.470Z,0
2016-07-12T01:48:37.146Z,0
2016-07-12T01:49:36.427Z,0
2016-07-12T01:50:36.405Z,0
2016-07-12T01:51:36.387Z,0
2016-07-12T01:52:36.364Z,0
2016-07-12T01:53:36.349Z,0
2016-07-12T01:54:36.334Z,0
2016-07-12T01:55:36.313Z,0
2016-07-12T01:56:36.290Z,0
2016-07-12T01:57:36.273Z,0
2016-07-12T01:58:36.256Z,0
2016-07-12T01:59:36.231Z,0
2016-07-12T02:00:36.217Z,0
2016-07-12T02:01:36.191Z,0
2016-07-12T02:02:36.183Z,0
2016-07-12T02:03:36.151Z,0
2016-07-12T02:04:36.139Z,0
2016-07-12T02:05:36.121Z,0
2016-07-12T02:06:36.096Z,0
2016-07-12T02:07:36.076Z,0
2016-07-12T02:08:36.068Z,0
2016-07-12T02:09:36.035Z,0
2016-07-12T02:10:36.793Z,0
2016-07-12T02:11:36.002Z,0
2016-07-12T02:12:35.976Z,0
2016-07-12T02:13:36.654Z,0
2016-07-12T02:14:35.940Z,0
2016-07-12T02:15:35.916Z,0
2016-07-12T02:16:35.897Z,0
2016-07-12T02:17:35.881Z,0
2016-07-12T02:18:35.857Z,0
2016-07-12T02:19:35.840Z,0
2016-07-12T02:20:35.819Z,0
2016-07-12T02:21:35.797Z,0
2016-07-12T02:22:35.792Z,0
2016-07-12T02:23:35.761Z,0
2016-07-12T02:24:35.739Z,0
2016-07-12T02:25:35.739Z,0
2016-07-12T02:26:35.699Z,0
2016-07-12T02:27:35.686Z,0
2016-07-12T02:28:35.663Z,0
2016-07-12T02:29:35.647Z,0
2016-07-12T02:30:35.626Z,0
2016-07-12T02:31:35.609Z,0
2016-07-12T02:32:35.584Z,0
2016-07-12T02:33:35.572Z,0
2016-07-12T02:34:35.548Z,0
2016-07-12T02:35:35.527Z,0
2016-07-12T02:36:35.505Z,0
2016-07-12T02:37:35.489Z,0
2016-07-12T02:38:35.466Z,0
2016-07-12T02:39:35.450Z,0
2016-07-12T02:40:35.432Z,0
2016-07-12T02:41:35.412Z,0
2016-07-12T02:42:35.387Z,0
2016-07-12T02:43:35.375Z,0
2016-07-12T02:44:35.350Z,0
2016-07-12T02:45:35.323Z,0
2016-07-12T02:46:35.313Z,0
2016-07-12T02:47:35.288Z,0
2016-07-12T02:48:35.274Z,0
2016-07-12T02:49:35.250Z,0
2016-07-12T02:50:35.229Z,0
2016-07-12T02:51:35.221Z,0
2016-07-12T02:52:35.192Z,0
2016-07-12T02:53:35.169Z,0
2016-07-12T02:54:35.150Z,0
2016-07-12T02:55:35.141Z,0
2016-07-12T02:56:35.117Z,0
2016-07-12T02:57:35.097Z,0
2016-07-12T02:58:35.081Z,0
2016-07-12T02:59:35.044Z,0
2016-07-12T03:00:35.040Z,0
2016-07-12T03:01:35.013Z,0
2016-07-12T03:02:34.994Z,0
2016-07-12T03:03:34.966Z,0
2016-07-12T03:04:34.952Z,0
2016-07-12T03:05:34.934Z,0
2016-07-12T03:06:34.914Z,0
2016-07-12T03:07:34.892Z,0
2016-07-12T03:08:34.872Z,5
2016-07-12T03:09:34.850Z,5
2016-07-12T03:10:34.838Z,5
2016-07-12T03:11:34.813Z,5
2016-07-12T03:12:34.790Z,5
2016-07-12T03:13:34.776Z,5
2016-07-12T03:14:34.754Z,5
2016-07-12T03:15:34.742Z,10
2016-07-12T03:16:34.727Z,10
2016-07-12T03:17:34.697Z,10
2016-07-12T03:18:34.681Z,10
2016-07-12T03:19:34.654Z,10
2016-07-12T03:20:34.637Z,10
2016-07-12T03:21:34.617Z,15
2016-07-12T03:22:34.589Z,15
2016-07-12T03:23:34.578Z,15
2016-07-12T03:24:34.556Z,15
2016-07-12T03:25:34.541Z,15
2016-07-12T03:26:34.518Z,20
2016-07-12T03:27:34.495Z,20
2016-07-12T03:28:34.472Z,20
2016-07-12T03:29:34.458Z,20
2016-07-12T03:30:34.437Z,25
2016-07-12T03:31:34.416Z,25
2016-07-12T03:32:34.396Z,25
2016-07-12T03:33:34.376Z,25
2016-07-12T03:34:34.350Z,30
2016-07-12T03:35:34.335Z,30
2016-07-12T03:36:34.313Z,30
2016-07-12T03:37:34.304Z,35
2016-07-12T03:38:34.275Z,35
2016-07-12T03:39:34.255Z,35
2016-07-12T03:40:34.244Z,40
2016-07-12T03:41:34.218Z,40
2016-07-12T03:42:34.192Z,45
2016-07-12T03:43:34.175Z,45
2016-07-12T03:44:34.157Z,50
2016-07-12T03:45:34.136Z,55
2016-07-12T03:46:34.108Z,55
2016-07-12T03:47:34.093Z,60
2016-07-12T03:48:34.079Z,65
2016-07-12T03:49:34.058Z,70
2016-07-12T03:50:34.033Z,75
2016-07-12T03:51:34.014Z,80
2016-07-12T03:52:33.996Z,85
2016-07-12T03:53:33.972Z,85
2016-07-12T03:54:33.954Z,85
2016-07-12T03:55:33.939Z,90
2016-07-12T03:56:33.910Z,95
2016-07-12T03:57:33.895Z,100
2016-07-12T03:58:33.873Z,105
2016-07-12T03:59:33.851Z,110
2016-07-12T04:00:33.829Z,115
2016-07-12T04:01:33.820Z,120
2016-07-12T04:02:33.795Z,125
2016-07-12T04:03:33.772Z,130
2016-07-12T04:04:33.763Z,135
2016-07-12T04:05:33.732Z,135
2016-07-12T04:06:33.723Z,135
2016-07-12T04:07:33.709Z,140
2016-07-12T04:08:33.680Z,140
2016-07-12T04:09:33.655Z,140
2016-07-12T04:10:33.634Z,145
2016-07-12T04:11:33.619Z,150
2016-07-12T04:12:33.598Z,155
2016-07-12T04:13:33.589Z,160
2016-07-12T04:14:33.554Z,170
2016-07-12T04:15:33.540Z,170
2016-07-12T04:16:33.520Z,180
2016-07-12T04:17:33.495Z,190
2016-07-12T04:18:33.479Z,200
2016-07-12T04:19:33.460Z,200
2016-07-12T04:20:33.435Z,205
2016-07-12T04:21:33.411Z,210
2016-07-12T04:22:33.409Z,210
2016-07-12T04:23:33.380Z,215
2016-07-12T04:24:33.356Z,215
2016-07-12T04:25:33.347Z,215
2016-07-12T04:26:33.328Z,220
2016-07-12T04:27:33.310Z,220
2016-07-12T04:28:33.283Z,225
2016-07-12T04:29:33.263Z,225
2016-07-12T04:30:33.240Z,225
2016-07-12T04:31:33.229Z,230
2016-07-12T04:32:33.207Z,230
2016-07-12T04:33:33.204Z,230
2016-07-12T04:34:33.168Z,235
2016-07-12T04:35:33.142Z,240
2016-07-12T04:36:33.127Z,240
2016-07-12T04:37:33.118Z,240
2016-07-12T04:38:33.089Z,245
2016-07-12T04:39:33.070Z,240
2016-07-12T04:40:33.055Z,245
2016-07-12T04:41:33.739Z,245
2016-07-12T04:42:33.010Z,250
2016-07-12T04:43:32.999Z,255
2016-07-12T04:44:32.974Z,270
2016-07-12T04:45:32.964Z,275
2016-07-12T04:46:32.944Z,280
2016-07-12T04:47:32.912Z,285
2016-07-12T04:48:32.891Z,290
2016-07-12T04:49:32.880Z,290
2016-07-12T04:50:32.857Z,290
2016-07-12T04:51:32.842Z,295
2016-07-12T04:52:32.818Z,295
2016-07-12T04:53:32.808Z,300
2016-07-12T04:54:32.784Z,305
2016-07-12T04:55:32.780Z,305
2016-07-12T04:56:32.745Z,310
2016-07-12T04:57:32.738Z,315
2016-07-12T04:58:32.720Z,330
2016-07-12T04:59:32.686Z,330
2016-07-12T05:00:32.670Z,335
2016-07-12T05:01:32.653Z,335
2016-07-12T05:02:32.643Z,335
2016-07-12T05:03:32.612Z,335
2016-07-12T05:04:32.594Z,330
2016-07-12T05:05:32.577Z,330
2016-07-12T05:06:32.556Z,325
2016-07-12T05:07:32.537Z,320
2016-07-12T05:08:32.520Z,310
2016-07-12T05:09:32.501Z,315
2016-07-12T05:10:32.482Z,310
2016-07-12T05:11:32.475Z,310
2016-07-12T05:12:32.442Z,315
2016-07-12T05:13:32.424Z,315
2016-07-12T05:14:32.405Z,310
2016-07-12T05:15:32.390Z,300
2016-07-12T05:16:33.068Z,315
2016-07-12T05:17:32.356Z,325
2016-07-12T05:18:32.330Z,335
2016-07-12T05:19:32.316Z,350
2016-07-12T05:20:32.295Z,355
2016-07-12T05:21:32.276Z,370
2016-07-12T05:22:32.258Z,395
2016-07-12T05:23:32.237Z,375
2016-07-12T05:24:32.215Z,395
2016-07-12T05:25:32.213Z,390
2016-07-12T05:26:32.190Z,390
2016-07-12T05:27:32.160Z,385
2016-07-12T05:28:32.146Z,395
2016-07-12T05:29:32.127Z,400
2016-07-12T05:30:32.107Z,390
2016-07-12T05:31:32.096Z,375
2016-07-12T05:32:32.075Z,355
2016-07-12T05:33:32.053Z,345
2016-07-12T05:34:32.036Z,325
2016-07-12T05:35:32.024Z,390
2016-07-12T05:36:31.994Z,385
2016-07-12T05:37:31.978Z,380
2016-07-12T05:38:31.960Z,370
2016-07-12T05:39:31.938Z,340
2016-07-12T05:40:31.936Z,375
2016-07-12T05:41:31.904Z,380
2016-07-12T05:42:31.891Z,390
2016-07-12T05:43:31.863Z,375
2016-07-12T05:44:31.849Z,445
2016-07-12T05:45:31.838Z,420
2016-07-12T05:46:31.812Z,415
2016-07-12T05:47:31.798Z,390
2016-07-12T05:48:31.783Z,380
2016-07-12T05:49:31.753Z,400
2016-07-12T05:50:31.751Z,405
2016-07-12T05:51:31.725Z,400
2016-07-12T05:52:31.704Z,380
2016-07-12T05:53:31.690Z,380
2016-07-12T05:54:31.671Z,430
2016-07-12T05:55:31.654Z,430
2016-07-12T05:56:31.639Z,420
2016-07-12T05:57:31.621Z,420
2016-07-12T05:58:31.608Z,415
2016-07-12T05:59:31.588Z,410
2016-07-12T06:00:31.564Z,415
2016-07-12T06:01:31.544Z,405
2016-07-12T06:02:31.531Z,405
2016-07-12T06:03:31.522Z,405
2016-07-12T06:04:31.498Z,405
2016-07-12T06:05:31.480Z,405
2016-07-12T06:06:31.464Z,405
2016-07-12T06:07:31.447Z,405
2016-07-12T06:08:32.121Z,410
2016-07-12T06:09:31.415Z,410
2016-07-12T06:10:31.396Z,410
2016-07-12T06:11:31.376Z,410
2016-07-12T06:12:32.063Z,415
2016-07-12T06:13:31.350Z,415
2016-07-12T06:14:31.330Z,425
2016-07-12T06:15:31.315Z,425
2016-07-12T06:16:31.996Z,430
2016-07-12T06:17:31.282Z,435
2016-07-12T06:18:31.272Z,440
2016-07-12T06:19:31.252Z,445
2016-07-12T06:20:31.244Z,450
2016-07-12T06:21:31.225Z,520
2016-07-12T06:22:31.199Z,770
2016-07-12T06:23:31.207Z,1075
2016-07-12T06:24:31.176Z,1215
2016-07-12T06:25:31.157Z,1360
2016-07-12T06:26:31.147Z,1395
2016-07-12T06:27:31.133Z,1390
2016-07-12T06:28:31.110Z,1340
2016-07-12T06:29:31.107Z,1290
2016-07-12T06:30:31.088Z,1310
2016-07-12T06:31:31.073Z,1400
2016-07-12T06:32:31.056Z,1430
2016-07-12T06:33:31.041Z,1430
2016-07-12T06:34:31.022Z,1425
2016-07-12T06:35:31.725Z,1415
2016-07-12T06:36:31.001Z,1420
2016-07-12T06:37:30.984Z,1465
2016-07-12T06:38:30.968Z,1505
2016-07-12T06:39:30.951Z,1535
2016-07-12T06:40:30.943Z,1505
2016-07-12T06:41:30.927Z,1460
2016-07-12T06:42:30.911Z,1420
2016-07-12T06:43:30.900Z,1440
2016-07-12T06:44:30.884Z,1450
2016-07-12T06:45:31.571Z,1490
2016-07-12T06:46:30.851Z,1445
2016-07-12T06:47:30.843Z,1420
2016-07-12T06:48:30.834Z,1420
2016-07-12T06:49:30.816Z,1425
2016-07-12T06:50:30.808Z,1425
2016-07-12T06:51:30.789Z,1385
2016-07-12T06:52:30.788Z,1360
2016-07-12T06:53:30.762Z,1350
2016-07-12T06:54:30.755Z,1320
2016-07-12T06:55:30.738Z,1300
2016-07-12T06:56:30.728Z,1260
2016-07-12T06:57:32.497Z,1180
2016-07-12T06:58:30.707Z,1090
2016-07-12T06:59:30.693Z,1045
2016-07-12T07:00:31.495Z,970
2016-07-12T07:01:30.666Z,935
2016-07-12T07:02:30.652Z,920
2016-07-12T07:03:30.639Z,890
2016-07-12T07:04:30.626Z,835
2016-07-12T07:05:30.621Z,775
2016-07-12T07:06:30.607Z,750
2016-07-12T07:07:31.332Z,760
2016-07-12T07:08:30.582Z,780
2016-07-12T07:09:30.573Z,785
2016-07-12T07:10:30.560Z,1105
2016-07-12T07:11:30.549Z,1840
2016-07-12T07:12:30.537Z,2290
2016-07-12T07:13:30.526Z,1750
2016-07-12T07:14:30.622Z,1915
2016-07-12T07:15:30.504Z,2095
2016-07-12T07:16:30.488Z,1950
2016-07-12T07:17:30.490Z,1855
2016-07-12T07:18:30.469Z,2115
2016-07-12T07:19:30.454Z,2245
2016-07-12T07:20:30.440Z,2155
2016-07-12T07:21:30.432Z,2165
2016-07-12T07:22:30.420Z,1075
2016-07-12T07:23:30.400Z,1570
2016-07-12T07:24:30.395Z,1340
2016-07-12T07:25:30.395Z,1755
2016-07-12T07:26:30.378Z,915
2016-07-12T07:27:30.359Z,1060
2016-07-12T07:28:30.349Z,1340
2016-07-12T07:29:30.340Z,1865
2016-07-12T07:30:30.324Z,1445
2016-07-12T07:31:30.312Z,1310
2016-07-12T07:32:30.301Z,1220
2016-07-12T07:33:30.977Z,910
2016-07-12T07:34:30.276Z,1330
2016-07-12T07:35:30.274Z,1900
2016-07-12T07:36:30.249Z,1505
2016-07-12T07:37:30.248Z,1970
2016-07-12T07:38:30.243Z,1850
2016-07-12T07:39:30.216Z,1790
2016-07-12T07:40:30.209Z,1740
2016-07-12T07:41:30.197Z,1920
2016-07-12T07:42:30.183Z,2035
2016-07-12T07:43:30.167Z,2060
2016-07-12T07:44:30.159Z,2145
2016-07-12T07:45:30.150Z,2180
2016-07-12T07:46:30.136Z,1950
2016-07-12T07:47:30.126Z,1895
2016-07-12T07:48:30.107Z,2030
2016-07-12T07:49:30.098Z,1875
2016-07-12T07:50:30.091Z,1975
2016-07-12T07:51:30.081Z,2220
2016-07-12T07:52:30.065Z,2155
2016-07-12T07:53:30.054Z,1850
2016-07-12T07:54:30.058Z,1820
2016-07-12T07:55:30.048Z,2385
2016-07-12T07:56:30.024Z,2375
2016-07-12T07:57:30.028Z,2320
2016-07-12T07:58:30.006Z,2405
2016-07-12T07:59:29.994Z,2300
2016-07-12T08:00:29.987Z,2295
2016-07-12T08:01:29.991Z,2260
2016-07-12T08:02:29.985Z,2550
2016-07-12T08:03:29.959Z,2585
2016-07-12T08:04:29.952Z,2615
2016-07-12T08:05:30.003Z,2700
2016-07-12T08:06:29.936Z,735
2016-07-12T08:07:29.926Z,2570
2016-07-12T08:08:29.917Z,1565
2016-07-12T08:09:29.903Z,1355
2016-07-12T08:10:29.895Z,2580
2016-07-12T08:11:29.892Z,2725
2016-07-12T08:12:29.877Z,2755
2016-07-12T08:13:29.878Z,2745
2016-07-12T08:14:29.859Z,2690
2016-07-12T08:15:29.855Z,770
2016-07-12T08:16:29.845Z,2640
2016-07-12T08:17:29.836Z,2880
2016-07-12T08:18:31.456Z,2700
2016-07-12T08:19:29.812Z,2145
2016-07-12T08:20:30.861Z,2765
2016-07-12T08:21:30.636Z,2615
2016-07-12T08:22:29.793Z,2900
2016-07-12T08:23:29.836Z,2615
2016-07-12T08:24:29.773Z,2530
2016-07-12T08:25:29.765Z,2950
2016-07-12T08:26:29.756Z,3040
2016-07-12T08:27:30.468Z,3190
2016-07-12T08:28:29.746Z,1985
2016-07-12T08:29:29.736Z,2430
2016-07-12T08:30:29.728Z,2220
2016-07-12T08:31:29.722Z,1540
2016-07-12T08:32:31.170Z,1690
2016-07-12T08:33:29.704Z,2545
2016-07-12T08:34:29.698Z,1175
2016-07-12T08:35:29.693Z,1195
2016-07-12T08:36:29.688Z,1160
2016-07-12T08:37:29.673Z,1145
2016-07-12T08:38:29.670Z,2395
2016-07-12T08:39:29.662Z,3080
2016-07-12T08:40:29.649Z,1715
2016-07-12T08:41:29.646Z,2755
2016-07-12T08:42:29.634Z,2815
2016-07-12T08:43:29.681Z,2770
2016-07-12T08:44:29.611Z,2740
2016-07-12T08:45:29.609Z,2775
2016-07-12T08:46:29.601Z,2800
2016-07-12T08:47:29.721Z,2815
2016-07-12T08:48:29.587Z,2810
2016-07-12T08:49:30.017Z,2765
2016-07-12T08:50:29.606Z,2760
2016-07-12T08:51:29.556Z,2905
2016-07-12T08:52:29.545Z,2905
2016-07-12T08:53:30.252Z,2945
2016-07-12T08:54:29.536Z,2915
2016-07-12T08:55:31.728Z,2820
2016-07-12T08:56:29.528Z,2980
2016-07-12T08:57:29.521Z,3070
2016-07-12T08:58:29.504Z,865
2016-07-12T08:59:29.508Z,2950
2016-07-12T09:00:29.490Z,2920
2016-07-12T09:01:29.487Z,3120
2016-07-12T09:02:29.485Z,3145
2016-07-12T09:03:29.469Z,895
2016-07-12T09:04:29.461Z,3000
2016-07-12T09:05:29.514Z,1035
2016-07-12T09:06:29.449Z,765
2016-07-12T09:07:29.453Z,2950
2016-07-12T09:08:29.451Z,3095
2016-07-12T09:09:29.431Z,2905
2016-07-12T09:10:29.423Z,3045
2016-07-12T09:11:29.492Z,3085
2016-07-12T09:12:29.478Z,3170
2016-07-12T09:13:30.292Z,3155
2016-07-12T09:14:29.400Z,3055
2016-07-12T09:15:29.492Z,3010
2016-07-12T09:16:29.381Z,3080
2016-07-12T09:17:29.408Z,3050
2016-07-12T09:18:29.371Z,2835
2016-07-12T09:19:29.362Z,2765
2016-07-12T09:20:29.360Z,2805
2016-07-12T09:21:29.351Z,2795
2016-07-12T09:22:29.345Z,2750
2016-07-12T09:23:29.343Z,2825
2016-07-12T09:24:29.335Z,2890
2016-07-12T09:25:29.328Z,2860
2016-07-12T09:26:29.321Z,2830
2016-07-12T09:27:29.320Z,2865
2016-07-12T09:28:29.310Z,2700
2016-07-12T09:29:29.314Z,2755
2016-07-12T09:30:29.307Z,2865
2016-07-12T09:31:29.307Z,2890
2016-07-12T09:32:29.295Z,2865
2016-07-12T09:33:29.289Z,2920
2016-07-12T09:34:29.981Z,2975
2016-07-12T09:35:29.288Z,2960
2016-07-12T09:36:29.994Z,2855
2016-07-12T09:37:29.276Z,2930
2016-07-12T09:38:29.266Z,2910
2016-07-12T09:39:29.263Z,2825
2016-07-12T09:40:29.264Z,2920
2016-07-12T09:41:29.252Z,2995
2016-07-12T09:42:29.253Z,2860
2016-07-12T09:43:29.248Z,3020
2016-07-12T09:44:29.245Z,3025
2016-07-12T09:45:29.238Z,3030
2016-07-12T09:46:29.234Z,3035
2016-07-12T09:47:29.227Z,3095
2016-07-12T09:48:29.227Z,3055
2016-07-12T09:49:29.225Z,3050
2016-07-12T09:50:29.233Z,3035
2016-07-12T09:51:29.217Z,3050
2016-07-12T09:52:29.225Z,3045
2016-07-12T09:53:29.905Z,3095
2016-07-12T09:54:29.212Z,3095
2016-07-12T09:55:29.206Z,3135
2016-07-12T09:56:29.198Z,3165
2016-07-12T09:57:29.203Z,3120
2016-07-12T09:58:29.886Z,2805
2016-07-12T09:59:29.194Z,2965
2016-07-12T10:00:29.275Z,2935
2016-07-12T10:01:31.637Z,2890
2016-07-12T10:02:29.180Z,800
2016-07-12T10:03:29.180Z,2840
2016-07-12T10:04:29.175Z,2360
2016-07-12T10:05:29.170Z,2495
2016-07-12T10:06:29.171Z,2060
2016-07-12T10:07:29.164Z,1570
2016-07-12T10:08:29.157Z,2955
2016-07-12T10:09:29.156Z,3150
2016-07-12T10:10:29.155Z,1290
2016-07-12T10:11:29.158Z,3145
2016-07-12T10:12:29.140Z,3080
2016-07-12T10:13:29.164Z,3105
2016-07-12T10:14:29.827Z,1650
2016-07-12T10:15:29.131Z,2800
2016-07-12T10:16:29.120Z,975
2016-07-12T10:17:29.122Z,845
2016-07-12T10:18:29.116Z,3110
2016-07-12T10:19:29.115Z,940
2016-07-12T10:20:29.105Z,2990
2016-07-12T10:21:29.102Z,3075
2016-07-12T10:22:29.099Z,3075
2016-07-12T10:23:29.090Z,3025
2016-07-12T10:24:29.089Z,2970
2016-07-12T10:25:29.078Z,2955
2016-07-12T10:26:29.073Z,3070
2016-07-12T10:27:29.068Z,3125
2016-07-12T10:28:29.066Z,2875
2016-07-12T10:29:29.069Z,2970
2016-07-12T10:31:29.077Z,655
2016-07-12T10:32:29.050Z,935
2016-07-12T10:33:29.035Z,850
2016-07-12T10:35:12.052Z,1160
2016-07-12T10:35:29.035Z,1470
2016-07-12T10:36:29.025Z,2665
2016-07-12T10:37:29.028Z,2940
2016-07-12T10:38:29.704Z,3010
2016-07-12T10:39:29.011Z,690
2016-07-12T10:40:28.995Z,1615
2016-07-12T10:41:28.992Z,855
2016-07-12T10:42:28.991Z,3195
2016-07-12T10:43:28.982Z,2815
2016-07-12T10:44:28.979Z,3085
2016-07-12T10:45:28.966Z,3195
2016-07-12T10:46:28.955Z,3235
2016-07-12T10:47:28.953Z,3050
2016-07-12T10:48:28.951Z,2535
2016-07-12T10:49:28.952Z,2670
2016-07-12T10:50:28.937Z,3000
2016-07-12T10:51:28.934Z,3195
2016-07-12T10:52:28.927Z,3115
2016-07-12T10:53:28.923Z,3235
2016-07-12T10:54:28.922Z,2225
2016-07-12T10:55:28.922Z,3305
2016-07-12T10:56:28.917Z,3200
2016-07-12T10:57:28.915Z,3220
2016-07-12T10:58:28.909Z,3290
2016-07-12T10:59:28.910Z,3285
2016-07-12T11:00:28.910Z,3305
2016-07-12T11:01:28.898Z,3530
2016-07-12T11:02:28.898Z,3385
2016-07-12T11:03:28.893Z,3395
2016-07-12T11:04:28.895Z,3365
2016-07-12T11:05:28.892Z,3300
2016-07-12T11:06:28.888Z,3300
2016-07-12T11:07:28.892Z,3265
2016-07-12T11:08:28.884Z,3340
2016-07-12T11:09:28.878Z,3335
2016-07-12T11:10:28.884Z,3425
2016-07-12T11:11:28.881Z,3385
2016-07-12T11:12:28.874Z,3255
2016-07-12T11:13:28.877Z,3315
2016-07-12T11:14:28.880Z,3415
2016-07-12T11:15:28.876Z,2430
2016-07-12T11:16:28.871Z,2510
2016-07-12T11:17:28.873Z,2300
2016-07-12T11:18:28.874Z,3405
2016-07-12T11:19:28.864Z,1985
2016-07-12T11:20:28.871Z,3615
2016-07-12T11:21:28.865Z,3725
2016-07-12T11:22:28.859Z,3490
2016-07-12T11:23:28.861Z,2150
2016-07-12T11:24:28.859Z,3610
2016-07-12T11:25:28.857Z,3735
2016-07-12T11:26:28.862Z,3585
2016-07-12T11:27:28.855Z,3510
2016-07-12T11:28:28.851Z,3560
2016-07-12T11:29:28.846Z,3700
2016-07-12T11:30:30.347Z,3760
2016-07-12T11:31:28.848Z,3760
2016-07-12T11:32:28.845Z,3805
2016-07-12T11:33:28.852Z,3780
2016-07-12T11:34:28.851Z,1445
2016-07-12T11:35:28.842Z,3560
2016-07-12T11:36:28.851Z,3815
2016-07-12T11:37:28.838Z,3780
2016-07-12T11:38:28.838Z,3775
2016-07-12T11:39:28.855Z,3765
2016-07-12T11:40:28.851Z,3870
2016-07-12T11:41:28.841Z,2345
2016-07-12T11:42:28.836Z,1545
2016-07-12T11:43:28.859Z,1150
2016-07-12T11:44:28.836Z,1140
2016-07-12T11:45:28.828Z,1165
2016-07-12T11:46:28.834Z,1960
2016-07-12T11:47:28.825Z,3645
2016-07-12T11:48:28.833Z,1530
2016-07-12T11:49:29.511Z,4085
2016-07-12T11:50:28.817Z,2890
2016-07-12T11:51:28.826Z,3450
2016-07-12T11:52:29.508Z,1940
2016-07-12T11:53:28.802Z,3485
2016-07-12T11:54:28.804Z,1770
2016-07-12T11:55:28.800Z,1840
2016-07-12T11:56:28.791Z,2470
2016-07-12T11:57:28.800Z,1720
2016-07-12T11:58:28.787Z,1530
2016-07-12T11:59:28.791Z,1500
2016-07-12T12:00:28.777Z,1505
2016-07-12T12:01:28.780Z,1505
2016-07-12T12:02:28.780Z,1500
2016-07-12T12:03:28.761Z,1510
2016-07-12T12:04:28.756Z,1405
2016-07-12T12:05:28.755Z,1605
2016-07-12T12:06:28.751Z,1595
2016-07-12T12:07:28.741Z,1810
2016-07-12T12:08:29.097Z,1800
2016-07-12T12:09:28.737Z,1815
2016-07-12T12:10:28.721Z,2045
2016-07-12T12:11:28.737Z,2070
2016-07-12T12:12:28.710Z,2120
2016-07-12T12:13:28.703Z,2360
2016-07-12T12:14:28.700Z,2275
2016-07-12T12:15:28.692Z,2025
2016-07-12T12:16:28.683Z,1765
2016-07-12T12:17:28.680Z,1735
2016-07-12T12:18:28.669Z,1750
2016-07-12T12:19:28.663Z,1710
2016-07-12T12:20:28.657Z,1660
2016-07-12T12:21:28.651Z,1660
2016-07-12T12:22:28.647Z,1560
2016-07-12T12:23:28.634Z,1540
2016-07-12T12:24:28.624Z,1620
2016-07-12T12:25:28.622Z,1725
2016-07-12T12:26:28.611Z,1685
2016-07-12T12:27:28.607Z,1705
2016-07-12T12:28:28.604Z,1815
2016-07-12T12:29:28.589Z,1825
2016-07-12T12:30:28.596Z,1770
2016-07-12T12:31:28.575Z,1695
2016-07-12T12:32:28.570Z,1755
2016-07-12T12:33:28.558Z,1820
2016-07-12T12:34:28.556Z,1790
2016-07-12T12:35:28.544Z,1655
2016-07-12T12:36:28.540Z,1560
2016-07-12T12:37:28.529Z,1575
2016-07-12T12:38:28.521Z,1920
2016-07-12T12:39:28.509Z,2145
2016-07-12T12:40:28.511Z,2025
2016-07-12T12:41:29.188Z,1945
2016-07-12T12:42:28.482Z,1770
2016-07-12T12:43:28.483Z,1830
2016-07-12T12:44:28.471Z,2050
2016-07-12T12:45:28.466Z,1780
2016-07-12T12:46:28.460Z,1700
2016-07-12T12:47:28.448Z,1605
2016-07-12T12:48:28.438Z,1580
2016-07-12T12:49:28.433Z,1795
2016-07-12T12:50:28.433Z,1660
2016-07-12T12:51:28.421Z,1725
2016-07-12T12:52:28.407Z,1975
2016-07-12T12:53:29.103Z,1875
2016-07-12T12:54:28.398Z,2090
2016-07-12T12:55:28.386Z,2535
2016-07-12T12:56:28.384Z,2205
2016-07-12T12:57:28.376Z,2450
2016-07-12T12:58:28.371Z,2745
2016-07-12T12:59:28.359Z,2790
2016-07-12T13:00:28.361Z,2820
2016-07-12T13:01:28.349Z,4210
2016-07-12T13:02:28.346Z,3730
2016-07-12T13:03:28.342Z,3940
2016-07-12T13:04:28.327Z,3095
2016-07-12T13:05:28.322Z,2145
2016-07-12T13:06:28.319Z,3430
2016-07-12T13:07:29.011Z,2760
2016-07-12T13:08:28.307Z,2205
2016-07-12T13:09:28.305Z,2120
2016-07-12T13:10:28.300Z,2560
2016-07-12T13:11:28.312Z,1795
2016-07-12T13:12:28.292Z,1950
2016-07-12T13:13:28.286Z,1980
2016-07-12T13:14:28.282Z,3130
2016-07-12T13:15:28.279Z,1940
2016-07-12T13:16:28.276Z,1765
2016-07-12T13:17:28.276Z,2050
2016-07-12T13:18:28.262Z,1775
2016-07-12T13:19:28.261Z,1530
2016-07-12T13:20:28.260Z,1590
2016-07-12T13:21:28.251Z,1615
2016-07-12T13:22:28.245Z,4735
2016-07-12T13:23:28.241Z,3285
2016-07-12T13:24:28.235Z,4060
2016-07-12T13:25:28.227Z,4110
2016-07-12T13:26:28.384Z,4070
2016-07-12T13:27:28.214Z,3045
2016-07-12T13:28:28.211Z,1365
2016-07-12T13:29:28.220Z,1980
2016-07-12T13:30:28.211Z,1605
2016-07-12T13:31:28.207Z,1560
2016-07-12T13:32:28.197Z,3450
2016-07-12T13:33:28.888Z,3385
2016-07-12T13:34:28.184Z,3915
2016-07-12T13:35:28.182Z,4065
2016-07-12T13:36:28.182Z,1125
2016-07-12T13:37:28.175Z,1085
2016-07-12T13:38:28.172Z,1145
2016-07-12T13:39:28.171Z,1200
2016-07-12T13:40:28.858Z,2095
2016-07-12T13:41:28.160Z,1765
2016-07-12T13:42:28.162Z,4485
2016-07-12T13:43:28.149Z,2830
2016-07-12T13:44:28.144Z,3630
2016-07-12T13:45:28.195Z,1225
2016-07-12T13:46:28.140Z,2940
2016-07-12T13:47:28.130Z,1210